메인 페이지
METAR-TAF:

METAR-TAF

공항 :

벵갈루루, 인도

위도: 12-57-00N, 경도: 077-40-06E, 고도: 888m

현재 날씨관측

예보는 32분 전, 01:30시(UTC)에 발표되었습니다.
남서8kt
온도 21°C
습도 88%
기압 1011 hPa
시정 10km 이상
고도 800ft 상공 구름 보통
고도 8000ft 상공 구름 보통

METAR: VOBG 250130Z 23008KT 9999 SCT008 SCT080 21/19 Q1011

시각: 07:32 (02:02 UTC)

예보

예보는 3 시간 2분 전, 23:00시(UTC)에 발표되었습니다.
예보 대상 시간: 25일 00시부터 25일 09시까지 (UTC)
서남서10kt
시정: 6000m
고도 1200ft 상공 구름 보통
고도 8000ft 상공 구름 보통

TAF: VOBG 242300Z 2500/2509 25010KT 6000 SCT012 SCT080

4,000개 이상의 공항 관측 자료 및 예보 (METAR 및 TAF 보고).

지도상에서 검색 가능한 기상관측소가 노란 점과 빨간 점으로 표시되어 있습니다.

기상관측소 명을 보려면 표시 위로 마우스를 이동하세요.

날씨 관측과 예보를 보려면 클릭하세요.

지도 변경 : 확대하려면 엑스 표시가 있는 녹색 버튼, 축소하려면 빼기 표시가 있는 녹색 버튼, 다음 페이지의 지도를 보려면 녹색 화살표를 클릭하세요.


METAR-TAF: